Time;durP1;ratioP1;P1;durP2;ratioP2;P2;SDS_P1;SDS_P2;PMS_P1;PMS_P2;Temp;Humidity;BMP_temperature;BMP_pressure;BME280_temperature;BME280_humidity;BME280_pressure;Samples;Min_cycle;Max_cycle;Signal;HPM_P1;HPM_P2
2022/12/19 00:00:07;;;;;;;8.50;6.10;;;;;;;-1.10;100.00;101624.38;5012395;28;20021;-73
2022/12/19 00:02:33;;;;;;;9.43;6.77;;;;;;;-1.16;100.00;101608.94;5013352;28;20026;-73
2022/12/19 00:04:58;;;;;;;7.33;6.53;;;;;;;-1.05;100.00;101621.56;5012666;28;20299;-75
2022/12/19 00:07:24;;;;;;;8.13;6.13;;;;;;;-1.01;100.00;101623.97;5013085;28;20028;-76
2022/12/19 00:09:49;;;;;;;8.37;6.17;;;;;;;-0.97;100.00;101614.22;5015706;28;20029;-75
2022/12/19 00:12:15;;;;;;;10.17;6.60;;;;;;;-0.98;100.00;101607.28;5015414;28;20061;-75
2022/12/19 00:14:41;;;;;;;10.47;6.43;;;;;;;-0.90;100.00;101609.56;5015726;28;20079;-75
2022/12/19 00:17:06;;;;;;;9.83;5.93;;;;;;;-0.88;100.00;101598.09;5015669;28;20072;-74
2022/12/19 00:19:32;;;;;;;7.73;5.33;;;;;;;-0.85;100.00;101597.13;5015341;28;20022;-73
2022/12/19 00:21:57;;;;;;;7.67;5.20;;;;;;;-0.83;100.00;101592.69;4997737;28;20462;-74
2022/12/19 00:24:25;;;;;;;7.67;5.83;;;;;;;-0.80;100.00;101592.53;5015282;28;20032;-75
2022/12/19 00:26:51;;;;;;;9.07;6.20;;;;;;;-0.82;100.00;101587.38;5015604;28;20030;-74
2022/12/19 00:29:16;;;;;;;15.50;8.20;;;;;;;-0.81;100.00;101586.47;4997666;28;20264;-75
2022/12/19 00:31:42;;;;;;;8.50;6.47;;;;;;;-0.74;100.00;101589.66;5015717;28;20030;-75
2022/12/19 00:34:08;;;;;;;9.63;6.47;;;;;;;-0.71;100.00;101602.56;5017417;28;20025;-75
2022/12/19 00:36:33;;;;;;;8.10;6.60;;;;;;;-0.70;100.00;101604.28;5017928;28;20060;-75
2022/12/19 00:39:00;;;;;;;7.33;5.87;;;;;;;-0.69;100.00;101598.13;5017106;28;20257;-75
2022/12/19 00:41:32;;;;;;;7.03;6.13;;;;;;;-0.62;100.00;101599.53;5018276;28;20472;-75
2022/12/19 00:44:00;;;;;;;7.07;6.33;;;;;;;-0.62;100.00;101595.16;5015786;28;20257;-74
2022/12/19 00:46:28;;;;;;;8.27;6.55;;;;;;;-0.65;100.00;101597.91;5014704;28;20273;-74
2022/12/19 00:48:54;;;;;;;7.95;6.40;;;;;;;-0.66;100.00;101593.59;5014918;28;20033;-75
2022/12/19 00:51:25;;;;;;;8.77;6.37;;;;;;;-0.68;100.00;101589.34;5014609;28;20022;-74
2022/12/19 00:53:54;;;;;;;7.47;6.50;;;;;;;-0.66;100.00;101587.53;5014819;28;20269;-74
2022/12/19 00:56:23;;;;;;;6.80;5.50;;;;;;;-0.66;100.00;101582.28;5014651;28;20288;-74
2022/12/19 00:58:49;;;;;;;10.98;6.93;;;;;;;-0.57;100.00;101589.72;5014444;28;20288;-74
2022/12/19 01:01:18;;;;;;;8.43;6.47;;;;;;;-0.60;100.00;101581.16;5014283;28;20036;-73
2022/12/19 01:03:44;;;;;;;;;;;;;;;-0.54;100.00;101592.19;5014781;28;20648;-75
2022/12/19 01:06:09;;;;;;;8.23;6.27;;;;;;;-0.54;100.00;101576.50;5014583;28;19909;-75
2022/12/19 01:08:35;;;;;;;7.70;6.30;;;;;;;-0.54;100.00;101562.56;5014635;28;20093;-74
2022/12/19 01:11:01;;;;;;;10.90;6.70;;;;;;;-0.54;100.00;101570.41;5014524;28;20030;-72
2022/12/19 01:13:29;;;;;;;10.43;6.47;;;;;;;-0.52;100.00;101571.19;5014348;28;20030;-75
2022/12/19 01:15:55;;;;;;;9.35;6.90;;;;;;;-0.53;100.00;101567.72;5014341;28;20591;-74
2022/12/19 01:18:21;;;;;;;8.17;6.80;;;;;;;-0.56;100.00;101549.56;5018156;28;20489;-76
2022/12/19 01:20:47;;;;;;;9.47;6.90;;;;;;;-0.50;100.00;101567.59;5007626;28;20268;-75
2022/12/19 01:23:15;;;;;;;7.73;5.90;;;;;;;-0.76;100.00;101513.88;5016775;28;20025;-75
2022/12/19 01:25:41;;;;;;;9.05;7.00;;;;;;;-0.49;100.00;101552.72;5014339;28;20388;-74
2022/12/19 01:28:12;;;;;;;6.10;5.00;;;;;;;-0.40;100.00;101563.59;5014333;28;20077;-75
2022/12/19 01:30:38;;;;;;;6.57;5.40;;;;;;;-0.49;100.00;101547.50;5013944;28;20819;-75
2022/12/19 01:33:04;;;;;;;5.73;4.77;;;;;;;-0.30;100.00;101566.63;5014211;28;20264;-77
2022/12/19 01:35:29;;;;;;;7.43;5.17;;;;;;;-0.27;100.00;101557.78;5014091;28;20285;-74
2022/12/19 01:37:55;;;;;;;6.67;4.13;;;;;;;-0.23;100.00;101556.72;5013961;28;20392;-73
2022/12/19 01:40:21;;;;;;;5.17;4.67;;;;;;;-0.24;100.00;101552.41;5014329;28;20033;-74
2022/12/19 01:42:48;;;;;;;5.10;4.60;;;;;;;-0.35;100.00;101540.66;5013869;28;20137;-74
2022/12/19 01:45:16;;;;;;;6.67;5.00;;;;;;;-0.20;100.00;101562.66;5013519;28;20287;-76
2022/12/19 01:48:17;;;;;;;8.30;5.03;;;;;;;-0.17;100.00;101579.97;5013765;28;20272;-74
2022/12/19 01:51:04;;;;;;;5.63;4.30;;;;;;;-0.13;100.00;101578.91;4977753;28;20313;-75
2022/12/19 01:53:34;;;;;;;10.33;5.43;;;;;;;-0.10;100.00;101570.91;4996007;28;20293;-75
2022/12/19 01:56:04;;;;;;;4.87;4.27;;;;;;;-0.42;100.00;101522.72;5013393;28;20296;-75
2022/12/19 01:58:30;;;;;;;7.20;4.10;;;;;;;-0.11;100.00;101564.81;5013509;28;20677;-75
2022/12/19 02:00:55;;;;;;;5.70;3.63;;;;;;;-0.04;100.00;101575.84;5013485;28;20261;-74
2022/12/19 02:03:30;;;;;;;11.43;4.43;;;;;;;0.01;100.00;101579.09;5013368;28;20041;-75
2022/12/19 02:05:57;;;;;;;4.57;4.03;;;;;;;0.04;100.00;101573.72;5013707;28;20098;-73
2022/12/19 02:08:23;;;;;;;6.00;3.70;;;;;;;0.07;100.00;101591.03;5013842;28;20264;-75
2022/12/19 02:10:50;;;;;;;4.33;3.60;;;;;;;0.07;100.00;101588.44;5013932;28;20391;-76
2022/12/19 02:13:16;;;;;;;4.67;3.60;;;;;;;0.09;100.00;101597.91;5013408;28;20293;-76
2022/12/19 02:16:10;;;;;;;6.13;2.97;;;;;;;0.12;100.00;101600.38;5013266;28;20291;-75
2022/12/19 02:18:48;;;;;;;6.10;2.93;;;;;;;-0.16;100.00;101551.09;5014211;28;20637;-75
2022/12/19 02:21:28;;;;;;;5.47;3.03;;;;;;;0.11;100.00;101590.81;5016147;28;20613;-73
2022/12/19 02:24:20;;;;;;;7.07;3.00;;;;;;;0.16;100.00;101615.00;5013716;28;20261;-74
2022/12/19 02:27:20;;;;;;;5.87;3.40;;;;;;;0.16;100.00;101609.75;5013687;28;20284;-77
2022/12/19 02:38:23;;;;;;;6.97;2.83;;;;;;;0.27;100.00;101628.41;5011064;28;20330;-74
2022/12/19 02:41:17;;;;;;;7.07;2.47;;;;;;;0.30;100.00;101623.03;4959842;28;20316;-74
2022/12/19 02:43:50;;;;;;;4.63;2.57;;;;;;;0.21;100.00;101607.75;4974404;28;20378;-75
2022/12/19 02:46:20;;;;;;;4.87;2.70;;;;;;;0.17;100.00;101621.09;4977027;28;20277;-74
2022/12/19 02:49:20;;;;;;;4.03;1.80;;;;;;;0.36;98.93;101642.00;4977354;28;20375;-75
2022/12/19 02:51:45;;;;;;;3.90;1.73;;;;;;;0.26;99.01;101624.09;4976269;28;20700;-73
2022/12/19 02:54:11;;;;;;;7.33;2.37;;;;;;;0.24;98.86;101612.84;5013170;28;20367;-74
2022/12/19 03:07:51;;;;;;;3.47;1.63;;;;;;;0.20;99.48;101642.75;4949705;29;20845;-73
2022/12/19 03:10:41;;;;;;;3.70;2.00;;;;;;;0.33;99.67;101663.13;4951945;29;20287;-74
2022/12/19 03:13:31;;;;;;;4.77;1.70;;;;;;;0.22;99.78;101656.59;4952614;28;20302;-75
2022/12/19 03:15:58;;;;;;;5.97;2.30;;;;;;;0.28;99.78;101672.03;5011377;28;20292;-76
2022/12/19 03:18:24;;;;;;;4.03;1.80;;;;;;;0.19;99.55;101659.38;5013008;28;20256;-76
2022/12/19 03:21:01;;;;;;;4.67;2.30;;;;;;;0.29;99.87;101668.50;5012542;28;20367;-74
2022/12/19 03:23:28;;;;;;;6.37;2.17;;;;;;;0.24;99.34;101675.72;5012795;28;20267;-75
2022/12/19 03:26:02;;;;;;;5.07;1.93;;;;;;;0.24;99.77;101675.72;5013058;28;20363;-75
2022/12/19 03:28:42;;;;;;;7.13;1.90;;;;;;;0.26;99.75;101689.59;5013049;28;20419;-75
2022/12/19 03:31:09;;;;;;;9.33;3.50;;;;;;;0.30;100.00;101682.47;5012718;28;20376;-74
2022/12/19 03:33:37;;;;;;;2.53;1.70;;;;;;;0.23;100.00;101678.41;5012608;28;20295;-75
2022/12/19 03:36:05;;;;;;;8.77;2.20;;;;;;;0.26;100.00;101684.34;5013120;28;20300;-75
2022/12/19 03:38:33;;;;;;;3.30;1.58;;;;;;;0.14;100.00;101653.53;5014121;28;20851;-75
2022/12/19 03:41:00;;;;;;;8.18;2.10;;;;;;;0.24;100.00;101691.44;5014055;28;20030;-75
2022/12/19 03:43:42;;;;;;;3.00;2.37;;;;;;;0.19;99.46;101682.97;5028424;28;20026;-76
2022/12/19 03:46:27;;;;;;;8.03;3.10;;;;;;;0.06;99.33;101650.44;5006213;28;20276;-73
2022/12/19 03:49:12;;;;;;;8.63;2.30;;;;;;;0.09;100.00;101676.47;4995989;28;20297;-74
2022/12/19 03:51:49;;;;;;;2.43;1.60;;;;;;;-0.01;100.00;101680.44;5022075;28;20351;-71
2022/12/19 03:54:20;;;;;;;2.93;2.30;;;;;;;-0.24;100.00;101683.28;5034753;28;20288;-72
2022/12/19 03:57:31;;;;;;;7.53;2.10;;;;;;;-0.23;100.00;101704.16;5031567;28;20296;-73
2022/12/19 04:00:17;;;;;;;6.00;2.83;;;;;;;-0.41;100.00;101689.28;5019348;28;20284;-73
2022/12/19 04:10:29;;;;;;;3.37;1.90;;;;;;;-0.61;100.00;101677.09;4936839;29;20631;-75
2022/12/19 04:13:11;;;;;;;6.87;2.23;;;;;;;-0.36;100.00;101724.81;4973255;28;20328;-75
2022/12/19 04:15:52;;;;;;;4.63;2.63;;;;;;;-0.47;100.00;101723.59;5019612;28;20281;-76
2022/12/19 04:18:19;;;;;;;5.63;1.80;;;;;;;-0.73;100.00;101675.03;5016574;28;20732;-74
2022/12/19 04:20:57;;;;;;;5.20;2.10;;;;;;;-0.38;100.00;101760.66;5018248;28;20277;-74
2022/12/19 04:23:32;;;;;;;15.73;3.47;;;;;;;-0.43;100.00;101736.47;5016724;28;20360;-75
2022/12/19 04:26:02;;;;;;;4.63;1.80;;;;;;;-0.57;100.00;101728.41;5017028;28;20300;-74
2022/12/19 04:28:37;;;;;;;4.80;2.27;;;;;;;-0.56;100.00;101730.09;4983862;28;20257;-77
2022/12/19 04:31:04;;;;;;;12.67;3.97;;;;;;;-0.56;100.00;101751.03;5001071;28;20257;-76
2022/12/19 04:33:29;;;;;;;3.70;1.90;;;;;;;-0.52;100.00;101747.34;5000242;28;20276;-72
2022/12/19 04:43:38;;;;;;;6.33;2.00;;;;;;;-0.34;100.00;101751.75;4944938;28;20293;-76
2022/12/19 04:57:55;;;;;;;8.17;2.30;;;;;;;-0.34;99.77;101757.00;4985552;28;20287;-78
2022/12/19 05:04:04;;;;;;;6.17;2.20;;;;;;;-0.44;99.56;101732.16;5014702;28;20273;-75
2022/12/19 05:06:30;;;;;;;3.53;2.20;;;;;;;-0.43;99.23;101751.31;5017676;28;20632;-75
2022/12/19 05:08:56;;;;;;;4.27;2.00;;;;;;;-0.50;98.66;101734.19;5015753;28;20041;-77
2022/12/19 05:11:21;;;;;;;2.70;1.57;;;;;;;-0.25;98.48;101768.00;5015767;28;20604;-76
2022/12/19 05:17:38;;;;;;;10.93;2.30;;;;;;;-0.38;98.18;101744.97;4983010;28;20428;-74
2022/12/19 05:20:59;;;;;;;5.17;2.37;;;;;;;-0.14;98.38;101794.53;5013354;28;20273;-75
2022/12/19 05:23:29;;;;;;;4.63;2.17;;;;;;;-0.35;98.67;101750.06;4998529;28;20034;-74
2022/12/19 05:30:05;;;;;;;5.80;2.40;;;;;;;-0.13;98.23;101801.47;5013214;28;20756;-76
2022/12/19 05:32:31;;;;;;;5.20;1.93;;;;;;;-0.35;98.27;101760.53;5000631;28;20436;-76
2022/12/19 05:34:56;;;;;;;4.33;2.00;;;;;;;-0.17;97.36;101789.44;5019106;28;20414;-75
2022/12/19 05:37:22;;;;;;;3.90;1.70;;;;;;;-0.31;97.09;101780.41;5017208;28;20122;-75
2022/12/19 05:39:47;;;;;;;6.13;2.10;;;;;;;-0.23;95.50;101808.88;4984720;28;20141;-73
2022/12/19 05:42:13;;;;;;;4.30;2.00;;;;;;;-0.20;93.56;101811.38;4999331;28;20474;-73
2022/12/19 05:44:39;;;;;;;2.37;1.90;;;;;;;-0.21;92.76;101808.81;5016012;28;20104;-75
2022/12/19 05:47:06;;;;;;;5.43;1.80;;;;;;;-0.24;92.29;101795.88;4999736;28;20045;-76
2022/12/19 05:49:32;;;;;;;3.50;1.63;;;;;;;-0.23;90.85;101810.66;4997256;28;20641;-75
2022/12/19 05:51:57;;;;;;;9.03;2.73;;;;;;;-0.16;90.60;101807.69;5014435;28;20253;-74
2022/12/19 05:54:41;;;;;;;12.33;2.73;;;;;;;-0.16;90.73;101810.31;5013622;28;20458;-74
2022/12/19 05:57:13;;;;;;;4.13;1.90;;;;;;;-0.19;89.74;101833.16;4978911;28;20037;-74
2022/12/19 05:59:45;;;;;;;8.20;2.37;;;;;;;-0.19;89.50;101827.91;4978573;28;20272;-74
2022/12/19 06:02:11;;;;;;;;;;;;;;;-0.14;89.66;101826.78;4996205;28;20763;-78
2022/12/19 06:04:36;;;;;;;4.33;2.23;;;;;;;-0.43;89.08;101785.34;4999695;28;19949;-73
2022/12/19 06:07:04;;;;;;;5.30;1.80;;;;;;;-0.19;89.80;101830.53;4994240;28;20041;-75
2022/12/19 06:09:33;;;;;;;9.30;2.83;;;;;;;-0.25;89.72;101822.97;4999737;28;20037;-73
2022/12/19 06:12:21;;;;;;;4.20;2.33;;;;;;;-0.26;89.91;101822.13;4997038;28;20344;-75
2022/12/19 06:14:47;;;;;;;2.72;1.95;;;;;;;-0.14;90.56;101846.91;4992948;28;20364;-75
2022/12/19 06:17:21;;;;;;;4.37;2.40;;;;;;;-0.11;90.92;101849.38;4994261;28;20165;-75
2022/12/19 06:19:49;;;;;;;5.87;1.70;;;;;;;-0.25;90.79;101830.81;4996672;28;20018;-73
2022/12/19 06:22:18;;;;;;;3.65;1.77;;;;;;;-0.10;91.18;101858.94;5005253;28;20249;-73
2022/12/19 06:24:52;;;;;;;8.73;2.78;;;;;;;-0.13;92.21;101844.19;5006557;28;20030;-75
2022/12/19 06:30:32;;;;;;;6.53;2.20;;;;;;;-0.09;93.30;101866.72;4915984;29;20279;-77
2022/12/19 06:32:57;;;;;;;8.60;3.77;;;;;;;-0.02;93.87;101867.28;4991996;28;20264;-74
2022/12/19 06:35:23;;;;;;;7.47;2.57;;;;;;;-0.01;94.26;101863.75;4994423;28;20281;-72
2022/12/19 06:37:51;;;;;;;3.60;1.63;;;;;;;-0.03;93.94;101876.91;4993228;28;20529;-73
2022/12/19 06:47:30;;;;;;;6.80;2.20;;;;;;;-0.09;93.86;101860.63;4990870;28;20333;-72
2022/12/19 06:53:01;;;;;;;3.77;2.20;;;;;;;0.08;93.70;101873.84;5267167;23;20317;-75
2022/12/19 06:56:27;;;;;;;4.32;1.88;;;;;;;0.08;94.79;101886.94;4880258;29;20304;-76
2022/12/19 06:58:53;;;;;;;8.70;2.60;;;;;;;0.05;95.85;101894.94;4973334;28;20621;-73
2022/12/19 07:01:49;;;;;;;8.23;2.25;;;;;;;0.04;97.78;101895.00;4980331;28;20274;-76
2022/12/19 07:04:28;;;;;;;5.80;1.93;;;;;;;-0.19;99.43;101875.03;4980369;28;20031;-73
2022/12/19 07:06:57;;;;;;;9.13;2.10;;;;;;;-0.15;100.00;101876.63;4986064;28;20250;-79
2022/12/19 07:09:42;;;;;;;5.82;2.10;;;;;;;-0.15;100.00;101897.56;4971262;28;20717;-72
2022/12/19 07:12:55;;;;;;;5.90;1.93;;;;;;;-0.19;100.00;101899.47;4980211;28;20109;-78
2022/12/19 07:19:46;;;;;;;;;;;;;;;;;;;;;
2022/12/19 07:22:35;;;;;;;3.50;2.10;;;;;;;-0.29;100.00;101915.59;4944521;28;20272;-74
2022/12/19 07:25:36;;;;;;;5.60;2.30;;;;;;;-0.26;100.00;101918.13;4989471;28;20357;-80
2022/12/19 07:28:20;;;;;;;8.23;2.33;;;;;;;-0.56;100.00;101887.09;4951057;29;20434;-76
2022/12/19 07:30:56;;;;;;;2.57;1.73;;;;;;;-0.60;100.00;101892.47;4950900;29;20286;-74
2022/12/19 07:33:58;;;;;;;5.30;1.70;;;;;;;-0.32;100.00;101942.75;4920990;29;20286;-78
2022/12/19 07:36:23;;;;;;;5.50;1.93;;;;;;;-0.70;98.04;101861.47;4935641;29;20382;-77
2022/12/19 07:38:49;;;;;;;2.63;2.40;;;;;;;-0.69;97.53;101891.09;4951054;29;20361;-73
2022/12/19 07:41:15;;;;;;;3.07;1.60;;;;;;;-0.25;96.58;101948.63;4951440;29;20107;-72
2022/12/19 07:43:41;;;;;;;3.40;1.80;;;;;;;-0.29;96.37;101936.56;4951277;29;20130;-73
2022/12/19 07:46:06;;;;;;;6.33;1.87;;;;;;;-0.24;95.10;101960.78;4951339;29;20837;-74
2022/12/19 07:48:32;;;;;;;7.70;2.50;;;;;;;-0.24;94.86;101955.56;4951715;29;20043;-72
2022/12/19 07:50:57;;;;;;;7.10;1.90;;;;;;;-0.24;94.80;101961.66;4951469;29;20027;-71
2022/12/19 07:53:24;;;;;;;6.50;1.60;;;;;;;-0.29;93.62;101962.72;4951504;29;20050;-73
2022/12/19 07:55:52;;;;;;;3.90;1.80;;;;;;;-0.28;94.34;101967.06;4951457;29;20130;-72
2022/12/19 07:58:18;;;;;;;3.33;2.43;;;;;;;-0.24;93.31;101976.50;4940429;28;20361;-70
2022/12/19 08:00:43;;;;;;;5.90;2.03;;;;;;;-0.26;92.94;101975.72;4972744;28;20092;-69
2022/12/19 08:03:09;;;;;;;3.73;1.93;;;;;;;-0.28;92.24;101980.16;4973004;28;20027;-74
2022/12/19 08:05:35;;;;;;;4.37;2.13;;;;;;;-0.29;91.41;101974.03;4972792;28;20031;-73
2022/12/19 08:08:02;;;;;;;7.93;2.77;;;;;;;-0.31;91.90;101978.50;4972692;28;20281;-70
2022/12/19 08:10:27;;;;;;;3.70;1.90;;;;;;;-0.41;91.07;101974.56;4972903;28;20031;-74
2022/12/19 08:12:53;;;;;;;2.77;2.03;;;;;;;-0.44;90.34;101979.94;4972719;28;20251;-75
2022/12/19 08:15:18;;;;;;;7.40;2.40;;;;;;;-0.47;90.63;101974.81;4972676;28;20023;-75
2022/12/19 08:17:44;;;;;;;2.53;1.77;;;;;;;-0.57;90.28;101974.34;4972484;28;20038;-73
2022/12/19 08:20:10;;;;;;;7.23;2.80;;;;;;;-0.46;90.87;101987.84;4972565;28;20019;-73
2022/12/19 08:22:36;;;;;;;3.37;1.97;;;;;;;-0.56;90.56;101990.91;4972529;28;20116;-74
2022/12/19 08:25:02;;;;;;;3.63;1.57;;;;;;;-0.61;91.10;101993.69;4972305;28;20286;-73
2022/12/19 08:27:28;;;;;;;4.33;2.77;;;;;;;-0.70;91.72;101996.66;4972395;28;20018;-73
2022/12/19 08:29:54;;;;;;;4.33;2.80;;;;;;;-0.73;92.06;101999.41;4975616;28;20350;-72
2022/12/19 08:32:20;;;;;;;4.83;1.90;;;;;;;-0.79;92.30;102000.50;4975996;28;20023;-71
2022/12/19 08:34:45;;;;;;;4.53;1.90;;;;;;;-0.85;92.13;101999.91;4976311;28;20394;-72
2022/12/19 08:37:11;;;;;;;5.07;2.07;;;;;;;-0.82;92.00;102020.69;4975898;28;20290;-71
2022/12/19 08:39:39;;;;;;;5.97;2.00;;;;;;;-0.88;92.61;102018.28;4975568;28;20113;-77
2022/12/19 08:42:07;;;;;;;6.75;2.60;;;;;;;-0.86;92.83;102035.66;4976802;28;20360;-70
2022/12/19 08:44:59;;;;;;;5.15;2.60;;;;;;;-0.85;93.08;102039.97;4976557;28;20114;-72
2022/12/19 08:47:46;;;;;;;7.13;2.58;;;;;;;-0.93;92.40;102031.53;4982199;28;20026;-75
2022/12/19 08:50:12;;;;;;;5.03;1.70;;;;;;;-1.06;92.38;102023.31;4987023;28;20070;-76
2022/12/19 08:52:41;;;;;;;5.30;2.07;;;;;;;-0.92;92.16;102056.78;4955025;28;20361;-74
2022/12/19 08:55:06;;;;;;;6.43;1.80;;;;;;;-0.94;92.41;102064.69;4975947;28;20270;-75
2022/12/19 08:57:32;;;;;;;6.47;2.90;;;;;;;-0.99;93.17;102045.72;4975840;28;20493;-74
2022/12/19 09:00:28;;;;;;;6.73;2.70;;;;;;;-0.92;93.14;102067.25;4977701;28;20442;-73
2022/12/19 09:02:53;;;;;;;2.80;2.10;;;;;;;-0.98;93.38;102078.78;4931487;28;20037;-72
2022/12/19 09:05:19;;;;;;;4.97;2.17;;;;;;;-0.81;92.93;102080.78;4975462;28;20682;-74
2022/12/19 09:07:45;;;;;;;9.07;2.30;;;;;;;-0.71;92.53;102078.69;4975426;28;20030;-73
2022/12/19 09:10:10;;;;;;;2.63;2.13;;;;;;;-0.71;92.12;102081.28;4976931;28;20537;-73
2022/12/19 09:12:36;;;;;;;8.90;2.50;;;;;;;-0.76;92.87;102080.63;4984464;28;20053;-73
2022/12/19 09:15:02;;;;;;;5.43;2.57;;;;;;;-0.80;92.63;102092.13;4969630;28;20039;-71
2022/12/19 09:17:29;;;;;;;7.00;3.27;;;;;;;-0.87;93.72;102095.84;4985715;28;20037;-72
2022/12/19 09:19:54;;;;;;;8.30;2.57;;;;;;;-0.95;94.23;102091.75;4988653;28;20265;-71
2022/12/19 09:22:20;;;;;;;6.37;2.63;;;;;;;-1.32;93.99;102047.81;4978159;28;20077;-74
2022/12/19 09:24:45;;;;;;;4.10;1.90;;;;;;;-1.05;94.58;102106.09;4987141;28;20035;-72
2022/12/19 09:27:11;;;;;;;12.03;2.93;;;;;;;-1.12;94.77;102096.75;4987479;28;20050;-73
2022/12/19 09:29:36;;;;;;;9.00;2.63;;;;;;;-1.22;94.98;102095.38;4978217;28;20385;-72
2022/12/19 09:32:02;;;;;;;12.07;3.37;;;;;;;-1.21;95.55;102115.38;4983861;28;20034;-71
2022/12/19 09:34:28;;;;;;;7.53;2.27;;;;;;;-1.27;95.89;102113.81;4982247;28;20022;-72
2022/12/19 09:36:53;;;;;;;3.67;2.40;;;;;;;-1.32;96.36;102126.22;4975795;28;20027;-74
2022/12/19 09:39:18;;;;;;;9.20;2.70;;;;;;;-1.39;96.24;102116.88;4974243;28;20824;-73
2022/12/19 09:41:59;;;;;;;7.03;3.07;;;;;;;-1.32;96.42;102130.59;4977571;28;20497;-71
2022/12/19 09:44:47;;;;;;;5.33;3.37;;;;;;;-1.35;96.40;102141.16;4976380;28;20030;-72
2022/12/19 09:47:16;;;;;;;2.40;1.90;;;;;;;-1.35;96.58;102133.31;4976087;28;20255;-75
2022/12/19 09:49:44;;;;;;;10.97;2.47;;;;;;;-1.38;96.45;102136.03;4976429;28;20366;-72
2022/12/19 09:52:37;;;;;;;5.40;2.20;;;;;;;-1.34;96.49;102148.09;4974879;28;20378;-75
2022/12/19 09:55:19;;;;;;;7.53;2.60;;;;;;;-1.33;96.94;102144.56;4974833;28;20305;-74
2022/12/19 09:58:17;;;;;;;3.17;2.30;;;;;;;-1.30;96.43;102144.44;4978843;28;20331;-73
2022/12/19 10:00:47;;;;;;;5.13;2.75;;;;;;;-1.31;96.89;102137.53;4975513;28;20592;-79
2022/12/19 10:03:21;;;;;;;8.37;2.87;;;;;;;-1.26;96.74;102156.50;4974785;28;20360;-74
2022/12/19 10:06:04;;;;;;;13.43;4.13;;;;;;;-1.22;96.47;102147.66;4975927;28;20290;-73
2022/12/19 10:08:34;;;;;;;6.60;3.30;;;;;;;-1.25;96.41;102143.38;4981020;28;20321;-71
2022/12/19 10:11:11;;;;;;;7.20;3.50;;;;;;;-1.20;96.67;102144.97;4985338;28;20269;-71
2022/12/19 10:13:40;;;;;;;7.17;2.43;;;;;;;-1.19;96.63;102164.97;4991453;28;20254;-73
2022/12/19 10:16:14;;;;;;;6.25;3.03;;;;;;;-1.20;96.64;102171.97;4985054;28;20294;-71
2022/12/19 10:18:53;;;;;;;4.07;2.47;;;;;;;-1.22;97.14;102163.31;4980177;28;20066;-73
2022/12/19 10:21:22;;;;;;;6.07;2.43;;;;;;;-1.12;97.47;102162.13;4976316;28;20293;-72
2022/12/19 10:23:50;;;;;;;6.22;2.63;;;;;;;-0.99;96.56;102168.63;4973959;28;20352;-73
2022/12/19 10:26:29;;;;;;;7.63;2.53;;;;;;;-0.95;96.77;102166.75;4976440;28;20035;-71
2022/12/19 10:29:12;;;;;;;8.15;2.60;;;;;;;-0.90;96.48;102166.56;4977063;28;20030;-72
2022/12/19 10:31:37;;;;;;;10.40;3.10;;;;;;;-0.84;96.26;102176.84;4978680;28;20042;-72
2022/12/19 10:34:23;;;;;;;7.63;2.80;;;;;;;-0.83;96.11;102170.69;4981025;28;20328;-72
2022/12/19 10:36:56;;;;;;;13.90;9.80;;;;;;;-0.71;95.49;102180.69;4975135;28;20147;-74
2022/12/19 10:40:19;;;;;;;7.37;2.90;;;;;;;-0.62;95.71;102185.59;4982400;28;20266;-70
2022/12/19 10:42:54;;;;;;;4.40;2.67;;;;;;;-0.56;95.60;102176.69;4899358;29;20283;-73
2022/12/19 10:45:22;;;;;;;6.73;3.23;;;;;;;-0.52;95.98;102180.91;4902900;29;20256;-73
2022/12/19 10:47:53;;;;;;;5.87;2.83;;;;;;;-0.52;96.05;102176.50;4959931;28;20262;-72
2022/12/19 10:50:28;;;;;;;4.07;2.50;;;;;;;-0.43;95.71;102175.31;4983581;28;20265;-74
2022/12/19 10:52:57;;;;;;;6.00;2.97;;;;;;;-0.36;96.09;102176.78;4983198;28;20340;-73
2022/12/19 10:55:50;;;;;;;11.87;2.67;;;;;;;-0.26;95.56;102185.16;4982676;28;20344;-73
2022/12/19 10:58:22;;;;;;;8.48;2.67;;;;;;;-0.19;95.25;102178.75;4981540;28;20673;-72
2022/12/19 11:01:04;;;;;;;7.63;2.60;;;;;;;-0.14;95.05;102182.06;4986322;28;20385;-75
2022/12/19 11:03:33;;;;;;;7.20;3.93;;;;;;;-0.20;95.57;102177.91;4980409;28;20649;-70
2022/12/19 11:06:01;;;;;;;8.17;3.10;;;;;;;-0.23;95.29;102175.41;4981122;28;20352;-73
2022/12/19 11:08:35;;;;;;;7.67;3.27;;;;;;;-0.26;94.61;102172.06;4980383;28;20258;-71
2022/12/19 11:11:04;;;;;;;9.10;3.30;;;;;;;-0.28;95.19;102182.59;4982489;28;20266;-73
2022/12/19 11:13:44;;;;;;;11.20;4.83;;;;;;;-0.32;95.31;102173.97;4984472;28;20276;-75
2022/12/19 11:16:11;;;;;;;11.70;2.97;;;;;;;-0.26;95.33;102185.16;4983820;28;20034;-72
2022/12/19 11:18:44;;;;;;;4.47;2.70;;;;;;;-0.33;94.84;102181.88;4978585;28;20268;-72
2022/12/19 11:21:12;;;;;;;7.63;3.20;;;;;;;-0.21;94.94;102196.28;4985839;28;20254;-75
2022/12/19 11:24:04;;;;;;;7.50;2.90;;;;;;;-0.26;95.15;102188.63;4963892;28;20431;-72
2022/12/19 11:26:32;;;;;;;16.67;3.77;;;;;;;-0.21;94.76;102196.28;4982362;28;20369;-71
2022/12/19 11:29:04;;;;;;;7.80;3.75;;;;;;;-0.23;94.67;102195.50;4976006;28;20357;-71
2022/12/19 11:31:30;;;;;;;10.83;3.30;;;;;;;-0.17;94.68;102200.50;4980659;28;20034;-72
2022/12/19 11:34:14;;;;;;;8.90;3.63;;;;;;;-0.15;94.79;102203.91;4980635;28;20300;-71
2022/12/19 11:36:46;;;;;;;8.50;2.60;;;;;;;-0.17;94.62;102198.72;4978233;28;20296;-71
2022/12/19 11:39:34;;;;;;;4.17;2.83;;;;;;;-0.15;94.50;102201.28;4983597;28;20672;-72
2022/12/19 11:42:23;;;;;;;4.60;2.70;;;;;;;-0.18;94.43;102196.19;4976089;28;20270;-70
2022/12/19 11:45:30;;;;;;;9.73;3.60;;;;;;;-0.15;94.23;102191.66;4979833;28;20266;-71
2022/12/19 11:48:00;;;;;;;11.20;4.37;;;;;;;-0.17;94.69;102182.16;4939545;28;20270;-70
2022/12/19 11:50:30;;;;;;;10.30;2.57;;;;;;;-0.16;93.76;102194.34;4984401;28;20266;-71
2022/12/19 11:53:26;;;;;;;12.90;3.13;;;;;;;-0.20;93.66;102183.16;4980733;28;20764;-71
2022/12/19 11:56:03;;;;;;;8.03;3.00;;;;;;;-0.20;93.48;102187.53;4982507;28;20293;-70
2022/12/19 11:58:28;;;;;;;6.23;2.57;;;;;;;-0.32;93.77;102179.22;4982873;28;20730;-73
2022/12/19 12:01:27;;;;;;;5.37;2.27;;;;;;;-0.29;93.81;102199.19;4980944;28;20517;-71
2022/12/19 12:04:04;;;;;;;7.38;2.30;;;;;;;-0.32;93.90;102199.31;4985812;28;20026;-74
2022/12/19 12:06:46;;;;;;;9.83;4.27;;;;;;;-0.38;93.86;102196.91;4990566;28;20478;-70
2022/12/19 12:09:12;;;;;;;13.93;3.10;;;;;;;-0.47;94.26;102190.28;4986008;28;20270;-72
2022/12/19 12:11:47;;;;;;;9.60;2.13;;;;;;;-0.48;94.51;102198.19;4983841;28;20345;-77
2022/12/19 12:14:23;;;;;;;3.57;2.10;;;;;;;-0.50;94.74;102195.63;4981653;28;20026;-73
2022/12/19 12:17:03;;;;;;;4.47;2.50;;;;;;;-0.47;94.91;102205.97;4987127;28;20316;-75
2022/12/19 12:19:52;;;;;;;5.47;2.13;;;;;;;-0.53;95.06;102208.81;4985418;28;20258;-76
2022/12/19 12:22:26;;;;;;;8.95;2.58;;;;;;;-0.74;95.12;102184.28;4979375;28;20828;-74
2022/12/19 12:25:15;;;;;;;6.87;2.20;;;;;;;-0.63;95.45;102217.91;4982073;28;20113;-72
2022/12/19 12:27:41;;;;;;;7.07;2.83;;;;;;;-0.68;95.85;102215.44;4980574;28;20258;-73
2022/12/19 12:30:15;;;;;;;25.43;14.53;;;;;;;-0.72;96.26;102224.31;4987142;28;20254;-72
2022/12/19 12:32:59;;;;;;;5.83;2.30;;;;;;;-0.79;96.79;102215.00;4974763;28;20262;-73
2022/12/19 12:35:35;;;;;;;7.43;2.63;;;;;;;-0.84;97.37;102208.22;4985137;28;20850;-71
2022/12/19 12:38:25;;;;;;;10.23;2.57;;;;;;;-0.87;98.21;102224.84;4985592;28;20266;-71
2022/12/19 12:41:00;;;;;;;12.90;3.40;;;;;;;-0.88;98.28;102219.69;4985533;28;20254;-70
2022/12/19 12:43:34;;;;;;;6.87;2.47;;;;;;;-0.95;99.37;102222.50;4995466;28;20312;-73
2022/12/19 12:46:04;;;;;;;4.90;2.50;;;;;;;-0.96;99.89;102228.66;5009499;28;20714;-77
2022/12/19 12:49:03;;;;;;;8.20;2.50;;;;;;;-1.03;99.69;102218.47;4994284;28;20685;-76
2022/12/19 12:51:43;;;;;;;11.10;2.17;;;;;;;-1.28;99.87;102189.69;4995791;28;20276;-77
2022/12/19 12:54:41;;;;;;;8.30;3.83;;;;;;;-1.14;100.00;102229.31;4975679;28;20285;-74
2022/12/19 12:57:32;;;;;;;6.90;3.07;;;;;;;-1.19;100.00;102232.94;4995093;28;20320;-71
2022/12/19 13:00:30;;;;;;;8.13;3.00;;;;;;;-1.18;100.00;102238.13;4993866;28;20653;-70
2022/12/19 13:03:11;;;;;;;5.87;2.57;;;;;;;-1.18;100.00;102232.03;4993690;28;20308;-72
2022/12/19 13:05:39;;;;;;;16.20;3.53;;;;;;;-1.21;100.00;102229.53;4994901;28;20313;-73
2022/12/19 13:08:25;;;;;;;6.15;2.25;;;;;;;-1.28;100.00;102229.75;4995107;28;20262;-71